sensor_id;sensor_type;location;lat;lon;timestamp;P1;durP1;ratioP1;P2;durP2;ratioP2
52816;SDS011;38687;43.330;21.924;2023-06-04T00:01:11;5.93;;;2.90;;
52816;SDS011;38687;43.330;21.924;2023-06-04T00:03:36;4.32;;;3.20;;
52816;SDS011;38687;43.330;21.924;2023-06-04T00:06:01;4.72;;;3.40;;
52816;SDS011;38687;43.330;21.924;2023-06-04T00:08:28;3.75;;;3.42;;
52816;SDS011;38687;43.330;21.924;2023-06-04T00:10:53;6.22;;;3.25;;
52816;SDS011;38687;43.330;21.924;2023-06-04T00:13:19;5.60;;;3.00;;
52816;SDS011;38687;43.330;21.924;2023-06-04T00:15:44;4.53;;;2.80;;
52816;SDS011;38687;43.330;21.924;2023-06-04T00:18:10;4.07;;;3.20;;
52816;SDS011;38687;43.330;21.924;2023-06-04T00:20:38;3.45;;;3.15;;
52816;SDS011;38687;43.330;21.924;2023-06-04T00:23:03;6.30;;;3.20;;
52816;SDS011;38687;43.330;21.924;2023-06-04T00:25:29;4.47;;;3.08;;
52816;SDS011;38687;43.330;21.924;2023-06-04T00:27:54;3.83;;;3.03;;
52816;SDS011;38687;43.330;21.924;2023-06-04T00:30:20;4.43;;;2.97;;
52816;SDS011;38687;43.330;21.924;2023-06-04T00:32:45;2.95;;;2.65;;
52816;SDS011;38687;43.330;21.924;2023-06-04T00:35:12;3.78;;;2.67;;
52816;SDS011;38687;43.330;21.924;2023-06-04T00:37:37;3.72;;;2.88;;
52816;SDS011;38687;43.330;21.924;2023-06-04T00:40:03;3.15;;;2.60;;
52816;SDS011;38687;43.330;21.924;2023-06-04T00:42:31;5.30;;;2.78;;
52816;SDS011;38687;43.330;21.924;2023-06-04T00:44:57;3.13;;;2.30;;
52816;SDS011;38687;43.330;21.924;2023-06-04T00:47:23;4.15;;;2.30;;
52816;SDS011;38687;43.330;21.924;2023-06-04T00:49:49;2.00;;;1.90;;
52816;SDS011;38687;43.330;21.924;2023-06-04T00:52:15;1.90;;;1.67;;
52816;SDS011;38687;43.330;21.924;2023-06-04T00:54:41;2.08;;;1.45;;
52816;SDS011;38687;43.330;21.924;2023-06-04T00:57:07;3.17;;;1.90;;
52816;SDS011;38687;43.330;21.924;2023-06-04T00:59:35;3.78;;;1.98;;
52816;SDS011;38687;43.330;21.924;2023-06-04T01:02:11;4.60;;;2.15;;
52816;SDS011;38687;43.330;21.924;2023-06-04T01:04:44;3.53;;;1.67;;
52816;SDS011;38687;43.330;21.924;2023-06-04T01:07:14;2.55;;;1.50;;
52816;SDS011;38687;43.330;21.924;2023-06-04T01:09:40;3.25;;;1.88;;
52816;SDS011;38687;43.330;21.924;2023-06-04T01:12:06;3.13;;;1.52;;
52816;SDS011;38687;43.330;21.924;2023-06-04T01:14:32;3.60;;;2.05;;
52816;SDS011;38687;43.330;21.924;2023-06-04T01:22:11;2.65;;;2.22;;
52816;SDS011;38687;43.330;21.924;2023-06-04T01:24:59;2.08;;;1.98;;
52816;SDS011;38687;43.330;21.924;2023-06-04T01:27:30;3.15;;;2.10;;
52816;SDS011;38687;43.330;21.924;2023-06-04T01:29:57;2.30;;;1.63;;
52816;SDS011;38687;43.330;21.924;2023-06-04T01:32:23;2.38;;;1.83;;
52816;SDS011;38687;43.330;21.924;2023-06-04T01:34:49;4.18;;;1.98;;
52816;SDS011;38687;43.330;21.924;2023-06-04T01:37:15;3.53;;;1.80;;
52816;SDS011;38687;43.330;21.924;2023-06-04T01:39:42;4.28;;;2.00;;
52816;SDS011;38687;43.330;21.924;2023-06-04T01:42:13;5.03;;;1.77;;
52816;SDS011;38687;43.330;21.924;2023-06-04T01:44:42;3.63;;;2.05;;
52816;SDS011;38687;43.330;21.924;2023-06-04T01:47:10;4.20;;;2.22;;
52816;SDS011;38687;43.330;21.924;2023-06-04T01:49:36;3.72;;;1.75;;
52816;SDS011;38687;43.330;21.924;2023-06-04T01:52:07;1.65;;;1.50;;
52816;SDS011;38687;43.330;21.924;2023-06-04T01:54:32;1.20;;;1.10;;
52816;SDS011;38687;43.330;21.924;2023-06-04T01:56:58;1.50;;;1.10;;
52816;SDS011;38687;43.330;21.924;2023-06-04T01:59:24;2.78;;;1.50;;
52816;SDS011;38687;43.330;21.924;2023-06-04T02:01:50;4.88;;;1.52;;
52816;SDS011;38687;43.330;21.924;2023-06-04T02:04:15;2.17;;;1.42;;
52816;SDS011;38687;43.330;21.924;2023-06-04T02:06:44;1.70;;;1.45;;
52816;SDS011;38687;43.330;21.924;2023-06-04T02:09:10;2.20;;;1.40;;
52816;SDS011;38687;43.330;21.924;2023-06-04T02:11:35;2.97;;;1.50;;
52816;SDS011;38687;43.330;21.924;2023-06-04T02:14:00;2.85;;;1.40;;
52816;SDS011;38687;43.330;21.924;2023-06-04T02:16:26;3.00;;;1.95;;
52816;SDS011;38687;43.330;21.924;2023-06-04T02:18:51;2.13;;;1.92;;
52816;SDS011;38687;43.330;21.924;2023-06-04T02:21:20;2.90;;;1.33;;
52816;SDS011;38687;43.330;21.924;2023-06-04T02:23:45;2.72;;;1.60;;
52816;SDS011;38687;43.330;21.924;2023-06-04T02:26:11;3.58;;;1.98;;
52816;SDS011;38687;43.330;21.924;2023-06-04T02:28:36;2.20;;;2.00;;
52816;SDS011;38687;43.330;21.924;2023-06-04T02:31:02;3.55;;;1.55;;
52816;SDS011;38687;43.330;21.924;2023-06-04T02:33:27;2.28;;;1.70;;
52816;SDS011;38687;43.330;21.924;2023-06-04T02:35:52;2.30;;;2.10;;
52816;SDS011;38687;43.330;21.924;2023-06-04T02:38:21;3.25;;;2.00;;
52816;SDS011;38687;43.330;21.924;2023-06-04T02:40:49;2.80;;;2.35;;
52816;SDS011;38687;43.330;21.924;2023-06-04T02:43:15;2.90;;;2.42;;
52816;SDS011;38687;43.330;21.924;2023-06-04T02:45:40;2.40;;;1.90;;
52816;SDS011;38687;43.330;21.924;2023-06-04T02:48:06;6.15;;;2.53;;
52816;SDS011;38687;43.330;21.924;2023-06-04T02:50:31;5.13;;;2.63;;
52816;SDS011;38687;43.330;21.924;2023-06-04T02:52:57;6.80;;;2.83;;
52816;SDS011;38687;43.330;21.924;2023-06-04T02:55:25;3.97;;;2.80;;
52816;SDS011;38687;43.330;21.924;2023-06-04T02:57:51;4.35;;;2.30;;
52816;SDS011;38687;43.330;21.924;2023-06-04T03:00:25;4.20;;;2.55;;
52816;SDS011;38687;43.330;21.924;2023-06-04T03:02:51;3.35;;;2.33;;
52816;SDS011;38687;43.330;21.924;2023-06-04T03:05:16;3.28;;;2.50;;
52816;SDS011;38687;43.330;21.924;2023-06-04T03:07:43;3.17;;;2.17;;
52816;SDS011;38687;43.330;21.924;2023-06-04T03:10:10;6.95;;;2.83;;
52816;SDS011;38687;43.330;21.924;2023-06-04T03:12:39;4.97;;;2.60;;
52816;SDS011;38687;43.330;21.924;2023-06-04T03:15:08;4.55;;;2.70;;
52816;SDS011;38687;43.330;21.924;2023-06-04T03:17:43;4.30;;;2.65;;
52816;SDS011;38687;43.330;21.924;2023-06-04T03:20:09;3.50;;;2.50;;
52816;SDS011;38687;43.330;21.924;2023-06-04T03:22:35;3.53;;;2.50;;
52816;SDS011;38687;43.330;21.924;2023-06-04T03:25:04;3.83;;;2.72;;
52816;SDS011;38687;43.330;21.924;2023-06-04T03:27:31;3.00;;;2.20;;
52816;SDS011;38687;43.330;21.924;2023-06-04T03:29:57;4.38;;;2.70;;
52816;SDS011;38687;43.330;21.924;2023-06-04T03:32:22;4.55;;;2.53;;
52816;SDS011;38687;43.330;21.924;2023-06-04T03:34:48;4.15;;;2.70;;
52816;SDS011;38687;43.330;21.924;2023-06-04T03:37:13;6.53;;;2.45;;
52816;SDS011;38687;43.330;21.924;2023-06-04T03:39:38;6.22;;;2.88;;
52816;SDS011;38687;43.330;21.924;2023-06-04T03:42:04;4.20;;;2.55;;
52816;SDS011;38687;43.330;21.924;2023-06-04T03:44:36;3.45;;;2.28;;
52816;SDS011;38687;43.330;21.924;2023-06-04T03:47:02;6.50;;;2.58;;
52816;SDS011;38687;43.330;21.924;2023-06-04T03:49:27;4.32;;;2.78;;
52816;SDS011;38687;43.330;21.924;2023-06-04T03:51:53;3.08;;;2.22;;
52816;SDS011;38687;43.330;21.924;2023-06-04T03:54:18;4.35;;;2.50;;
52816;SDS011;38687;43.330;21.924;2023-06-04T03:56:47;3.80;;;2.40;;
52816;SDS011;38687;43.330;21.924;2023-06-04T03:59:12;4.95;;;2.25;;
52816;SDS011;38687;43.330;21.924;2023-06-04T04:01:41;2.88;;;1.95;;
52816;SDS011;38687;43.330;21.924;2023-06-04T04:04:10;4.07;;;2.30;;
52816;SDS011;38687;43.330;21.924;2023-06-04T04:06:36;2.47;;;1.80;;
52816;SDS011;38687;43.330;21.924;2023-06-04T04:09:02;2.63;;;2.30;;
52816;SDS011;38687;43.330;21.924;2023-06-04T04:11:28;3.92;;;2.30;;
52816;SDS011;38687;43.330;21.924;2023-06-04T04:13:54;4.95;;;2.00;;
52816;SDS011;38687;43.330;21.924;2023-06-04T04:16:19;2.83;;;2.05;;
52816;SDS011;38687;43.330;21.924;2023-06-04T04:18:45;3.50;;;2.20;;
52816;SDS011;38687;43.330;21.924;2023-06-04T04:21:11;2.30;;;2.10;;
52816;SDS011;38687;43.330;21.924;2023-06-04T04:23:40;2.83;;;2.00;;
52816;SDS011;38687;43.330;21.924;2023-06-04T04:26:05;3.67;;;2.00;;
52816;SDS011;38687;43.330;21.924;2023-06-04T04:28:31;4.80;;;2.10;;
52816;SDS011;38687;43.330;21.924;2023-06-04T04:30:57;2.67;;;1.95;;
52816;SDS011;38687;43.330;21.924;2023-06-04T04:33:27;2.47;;;2.00;;
52816;SDS011;38687;43.330;21.924;2023-06-04T04:36:00;2.67;;;2.00;;
52816;SDS011;38687;43.330;21.924;2023-06-04T04:38:26;3.90;;;1.73;;
52816;SDS011;38687;43.330;21.924;2023-06-04T04:40:53;3.60;;;1.80;;
52816;SDS011;38687;43.330;21.924;2023-06-04T04:43:28;5.07;;;1.77;;
52816;SDS011;38687;43.330;21.924;2023-06-04T04:45:54;2.95;;;2.30;;
52816;SDS011;38687;43.330;21.924;2023-06-04T04:48:20;5.30;;;2.20;;
52816;SDS011;38687;43.330;21.924;2023-06-04T04:50:45;6.40;;;2.28;;
52816;SDS011;38687;43.330;21.924;2023-06-04T04:53:10;2.78;;;1.85;;
52816;SDS011;38687;43.330;21.924;2023-06-04T04:55:36;3.00;;;1.90;;
52816;SDS011;38687;43.330;21.924;2023-06-04T04:58:02;3.63;;;1.80;;
52816;SDS011;38687;43.330;21.924;2023-06-04T05:00:28;5.40;;;2.42;;
52816;SDS011;38687;43.330;21.924;2023-06-04T05:02:54;2.65;;;1.58;;
52816;SDS011;38687;43.330;21.924;2023-06-04T05:05:20;2.83;;;2.28;;
52816;SDS011;38687;43.330;21.924;2023-06-04T05:07:46;3.30;;;2.05;;
52816;SDS011;38687;43.330;21.924;2023-06-04T05:10:12;3.60;;;2.08;;
52816;SDS011;38687;43.330;21.924;2023-06-04T05:12:37;2.60;;;2.00;;
52816;SDS011;38687;43.330;21.924;2023-06-04T05:15:03;3.60;;;2.55;;
52816;SDS011;38687;43.330;21.924;2023-06-04T05:17:29;4.70;;;2.17;;
52816;SDS011;38687;43.330;21.924;2023-06-04T05:19:57;4.47;;;2.05;;
52816;SDS011;38687;43.330;21.924;2023-06-04T05:22:29;3.65;;;2.20;;
52816;SDS011;38687;43.330;21.924;2023-06-04T05:24:54;3.97;;;2.15;;
52816;SDS011;38687;43.330;21.924;2023-06-04T05:27:20;5.80;;;2.28;;
52816;SDS011;38687;43.330;21.924;2023-06-04T05:29:47;4.60;;;2.40;;
52816;SDS011;38687;43.330;21.924;2023-06-04T05:32:13;2.63;;;2.35;;
52816;SDS011;38687;43.330;21.924;2023-06-04T05:34:38;2.97;;;2.28;;
52816;SDS011;38687;43.330;21.924;2023-06-04T05:37:04;4.78;;;2.50;;
52816;SDS011;38687;43.330;21.924;2023-06-04T05:39:33;3.13;;;2.72;;
52816;SDS011;38687;43.330;21.924;2023-06-04T05:41:58;2.85;;;2.30;;
52816;SDS011;38687;43.330;21.924;2023-06-04T05:44:24;4.97;;;2.80;;
52816;SDS011;38687;43.330;21.924;2023-06-04T05:46:49;3.60;;;2.72;;
52816;SDS011;38687;43.330;21.924;2023-06-04T05:49:15;2.78;;;2.30;;
52816;SDS011;38687;43.330;21.924;2023-06-04T05:51:41;3.70;;;2.55;;
52816;SDS011;38687;43.330;21.924;2023-06-04T05:54:07;5.47;;;2.80;;
52816;SDS011;38687;43.330;21.924;2023-06-04T05:56:32;5.07;;;2.45;;
52816;SDS011;38687;43.330;21.924;2023-06-04T05:58:58;3.78;;;2.40;;
52816;SDS011;38687;43.330;21.924;2023-06-04T06:01:23;3.80;;;2.30;;
52816;SDS011;38687;43.330;21.924;2023-06-04T06:03:49;3.20;;;2.42;;
52816;SDS011;38687;43.330;21.924;2023-06-04T06:06:14;3.08;;;2.15;;
52816;SDS011;38687;43.330;21.924;2023-06-04T06:08:39;3.25;;;2.33;;
52816;SDS011;38687;43.330;21.924;2023-06-04T06:11:05;2.28;;;2.08;;
52816;SDS011;38687;43.330;21.924;2023-06-04T06:13:32;3.97;;;1.95;;
52816;SDS011;38687;43.330;21.924;2023-06-04T06:15:57;2.85;;;1.73;;
52816;SDS011;38687;43.330;21.924;2023-06-04T06:18:23;4.03;;;1.98;;
52816;SDS011;38687;43.330;21.924;2023-06-04T06:20:48;3.20;;;1.75;;
52816;SDS011;38687;43.330;21.924;2023-06-04T06:23:13;4.22;;;1.90;;
52816;SDS011;38687;43.330;21.924;2023-06-04T06:25:40;3.22;;;1.45;;
52816;SDS011;38687;43.330;21.924;2023-06-04T06:28:06;2.10;;;1.70;;
52816;SDS011;38687;43.330;21.924;2023-06-04T06:30:32;2.15;;;1.70;;
52816;SDS011;38687;43.330;21.924;2023-06-04T06:32:57;2.15;;;1.70;;
52816;SDS011;38687;43.330;21.924;2023-06-04T06:35:23;2.65;;;1.80;;
52816;SDS011;38687;43.330;21.924;2023-06-04T06:37:48;1.75;;;1.45;;
52816;SDS011;38687;43.330;21.924;2023-06-04T06:40:14;2.75;;;1.73;;
52816;SDS011;38687;43.330;21.924;2023-06-04T06:42:39;2.10;;;1.70;;
52816;SDS011;38687;43.330;21.924;2023-06-04T06:45:05;1.98;;;1.77;;
52816;SDS011;38687;43.330;21.924;2023-06-04T06:47:31;1.92;;;1.65;;
52816;SDS011;38687;43.330;21.924;2023-06-04T06:49:56;3.45;;;2.00;;
52816;SDS011;38687;43.330;21.924;2023-06-04T06:52:22;5.63;;;1.70;;
52816;SDS011;38687;43.330;21.924;2023-06-04T06:54:47;2.88;;;1.75;;
52816;SDS011;38687;43.330;21.924;2023-06-04T06:57:13;4.95;;;1.70;;
52816;SDS011;38687;43.330;21.924;2023-06-04T06:59:38;2.65;;;1.48;;
52816;SDS011;38687;43.330;21.924;2023-06-04T07:02:04;3.05;;;1.90;;
52816;SDS011;38687;43.330;21.924;2023-06-04T07:04:30;2.45;;;1.65;;
52816;SDS011;38687;43.330;21.924;2023-06-04T07:06:55;2.63;;;1.70;;
52816;SDS011;38687;43.330;21.924;2023-06-04T07:09:21;3.85;;;2.13;;
52816;SDS011;38687;43.330;21.924;2023-06-04T07:11:46;2.75;;;1.80;;
52816;SDS011;38687;43.330;21.924;2023-06-04T07:14:12;2.97;;;1.70;;
52816;SDS011;38687;43.330;21.924;2023-06-04T07:16:37;4.15;;;1.73;;
52816;SDS011;38687;43.330;21.924;2023-06-04T07:19:03;1.58;;;1.17;;
52816;SDS011;38687;43.330;21.924;2023-06-04T07:21:28;1.60;;;1.50;;
52816;SDS011;38687;43.330;21.924;2023-06-04T07:23:53;3.75;;;1.85;;
52816;SDS011;38687;43.330;21.924;2023-06-04T07:26:19;1.98;;;1.65;;
52816;SDS011;38687;43.330;21.924;2023-06-04T07:28:45;4.15;;;1.80;;
52816;SDS011;38687;43.330;21.924;2023-06-04T07:31:10;2.15;;;1.60;;
52816;SDS011;38687;43.330;21.924;2023-06-04T07:33:37;2.45;;;1.42;;
52816;SDS011;38687;43.330;21.924;2023-06-04T07:36:14;2.00;;;1.40;;
52816;SDS011;38687;43.330;21.924;2023-06-04T07:38:41;3.50;;;1.40;;
52816;SDS011;38687;43.330;21.924;2023-06-04T07:41:07;2.70;;;1.63;;
52816;SDS011;38687;43.330;21.924;2023-06-04T07:43:36;1.67;;;1.48;;
52816;SDS011;38687;43.330;21.924;2023-06-04T07:46:02;2.78;;;1.50;;
52816;SDS011;38687;43.330;21.924;2023-06-04T07:48:28;2.22;;;1.60;;
52816;SDS011;38687;43.330;21.924;2023-06-04T07:51:00;1.60;;;1.30;;
52816;SDS011;38687;43.330;21.924;2023-06-04T07:53:26;4.93;;;2.65;;
52816;SDS011;38687;43.330;21.924;2023-06-04T07:55:52;4.78;;;2.67;;
52816;SDS011;38687;43.330;21.924;2023-06-04T07:58:18;3.75;;;2.47;;
52816;SDS011;38687;43.330;21.924;2023-06-04T08:00:46;4.13;;;2.40;;
52816;SDS011;38687;43.330;21.924;2023-06-04T08:03:15;4.22;;;2.30;;
52816;SDS011;38687;43.330;21.924;2023-06-04T08:05:46;3.03;;;2.00;;
52816;SDS011;38687;43.330;21.924;2023-06-04T08:08:12;2.28;;;2.08;;
52816;SDS011;38687;43.330;21.924;2023-06-04T08:10:39;2.78;;;1.90;;
52816;SDS011;38687;43.330;21.924;2023-06-04T08:13:07;3.05;;;2.10;;
52816;SDS011;38687;43.330;21.924;2023-06-04T08:15:34;2.28;;;1.83;;
52816;SDS011;38687;43.330;21.924;2023-06-04T08:18:00;3.95;;;2.03;;
52816;SDS011;38687;43.330;21.924;2023-06-04T08:20:25;3.83;;;1.88;;
52816;SDS011;38687;43.330;21.924;2023-06-04T08:22:51;2.85;;;1.92;;
52816;SDS011;38687;43.330;21.924;2023-06-04T08:25:16;2.38;;;2.17;;
52816;SDS011;38687;43.330;21.924;2023-06-04T08:27:42;2.10;;;1.90;;
52816;SDS011;38687;43.330;21.924;2023-06-04T08:30:07;2.85;;;1.95;;
52816;SDS011;38687;43.330;21.924;2023-06-04T08:32:34;2.55;;;2.35;;
52816;SDS011;38687;43.330;21.924;2023-06-04T08:34:59;2.97;;;1.67;;
52816;SDS011;38687;43.330;21.924;2023-06-04T08:37:25;2.53;;;2.03;;
52816;SDS011;38687;43.330;21.924;2023-06-04T08:39:50;1.75;;;1.63;;
52816;SDS011;38687;43.330;21.924;2023-06-04T08:42:18;2.15;;;1.95;;
52816;SDS011;38687;43.330;21.924;2023-06-04T08:44:50;2.15;;;1.50;;
52816;SDS011;38687;43.330;21.924;2023-06-04T08:47:19;1.50;;;1.40;;
52816;SDS011;38687;43.330;21.924;2023-06-04T08:49:48;1.60;;;1.30;;
52816;SDS011;38687;43.330;21.924;2023-06-04T08:52:16;1.70;;;1.48;;
52816;SDS011;38687;43.330;21.924;2023-06-04T08:54:41;1.40;;;1.23;;
52816;SDS011;38687;43.330;21.924;2023-06-04T08:57:07;1.10;;;1.00;;
52816;SDS011;38687;43.330;21.924;2023-06-04T08:59:33;1.23;;;1.00;;
52816;SDS011;38687;43.330;21.924;2023-06-04T09:02:01;1.95;;;1.20;;
52816;SDS011;38687;43.330;21.924;2023-06-04T09:04:27;1.48;;;1.10;;
52816;SDS011;38687;43.330;21.924;2023-06-04T09:06:53;1.80;;;1.02;;
52816;SDS011;38687;43.330;21.924;2023-06-04T09:09:18;1.25;;;1.15;;
52816;SDS011;38687;43.330;21.924;2023-06-04T09:11:46;2.03;;;1.45;;
52816;SDS011;38687;43.330;21.924;2023-06-04T09:14:16;1.30;;;1.20;;
52816;SDS011;38687;43.330;21.924;2023-06-04T09:16:42;1.50;;;1.20;;
52816;SDS011;38687;43.330;21.924;2023-06-04T09:19:10;3.55;;;1.60;;
52816;SDS011;38687;43.330;21.924;2023-06-04T09:21:45;1.17;;;1.08;;
52816;SDS011;38687;43.330;21.924;2023-06-04T09:24:22;1.63;;;1.27;;
52816;SDS011;38687;43.330;21.924;2023-06-04T09:26:48;2.03;;;1.55;;
52816;SDS011;38687;43.330;21.924;2023-06-04T09:29:14;1.42;;;1.30;;
52816;SDS011;38687;43.330;21.924;2023-06-04T09:31:41;2.15;;;1.40;;
52816;SDS011;38687;43.330;21.924;2023-06-04T09:34:07;2.38;;;1.70;;
52816;SDS011;38687;43.330;21.924;2023-06-04T09:36:33;2.35;;;1.60;;
52816;SDS011;38687;43.330;21.924;2023-06-04T09:39:00;1.92;;;1.75;;
52816;SDS011;38687;43.330;21.924;2023-06-04T09:41:27;1.83;;;1.67;;
52816;SDS011;38687;43.330;21.924;2023-06-04T09:44:00;4.65;;;1.40;;
52816;SDS011;38687;43.330;21.924;2023-06-04T09:46:31;2.70;;;1.35;;
52816;SDS011;38687;43.330;21.924;2023-06-04T09:49:01;1.52;;;1.42;;
52816;SDS011;38687;43.330;21.924;2023-06-04T09:51:28;3.42;;;1.42;;
52816;SDS011;38687;43.330;21.924;2023-06-04T09:53:57;1.75;;;1.65;;
52816;SDS011;38687;43.330;21.924;2023-06-04T09:56:26;2.35;;;2.00;;
52816;SDS011;38687;43.330;21.924;2023-06-04T09:58:56;3.13;;;1.73;;
52816;SDS011;38687;43.330;21.924;2023-06-04T10:01:23;2.08;;;1.70;;
52816;SDS011;38687;43.330;21.924;2023-06-04T10:03:51;4.50;;;1.58;;
52816;SDS011;38687;43.330;21.924;2023-06-04T10:06:18;2.80;;;2.05;;
52816;SDS011;38687;43.330;21.924;2023-06-04T10:08:46;2.00;;;1.80;;
52816;SDS011;38687;43.330;21.924;2023-06-04T10:11:14;2.22;;;1.95;;
52816;SDS011;38687;43.330;21.924;2023-06-04T10:13:45;5.05;;;2.05;;
52816;SDS011;38687;43.330;21.924;2023-06-04T10:16:13;3.20;;;1.73;;
52816;SDS011;38687;43.330;21.924;2023-06-04T10:18:39;2.03;;;1.83;;
52816;SDS011;38687;43.330;21.924;2023-06-04T10:21:05;3.03;;;1.60;;
52816;SDS011;38687;43.330;21.924;2023-06-04T10:23:31;5.20;;;3.20;;
52816;SDS011;38687;43.330;21.924;2023-06-04T10:25:57;2.00;;;1.48;;
52816;SDS011;38687;43.330;21.924;2023-06-04T10:28:23;1.70;;;1.25;;
52816;SDS011;38687;43.330;21.924;2023-06-04T10:30:48;2.05;;;1.45;;
52816;SDS011;38687;43.330;21.924;2023-06-04T10:33:24;1.77;;;1.30;;
52816;SDS011;38687;43.330;21.924;2023-06-04T10:35:54;1.38;;;1.27;;
52816;SDS011;38687;43.330;21.924;2023-06-04T10:38:22;1.83;;;1.63;;
52816;SDS011;38687;43.330;21.924;2023-06-04T10:40:48;1.67;;;1.27;;
52816;SDS011;38687;43.330;21.924;2023-06-04T10:43:14;1.90;;;1.70;;
52816;SDS011;38687;43.330;21.924;2023-06-04T10:45:43;2.03;;;1.92;;
52816;SDS011;38687;43.330;21.924;2023-06-04T10:48:10;1.80;;;1.42;;
52816;SDS011;38687;43.330;21.924;2023-06-04T10:50:52;2.80;;;1.63;;
52816;SDS011;38687;43.330;21.924;2023-06-04T10:53:18;1.80;;;1.70;;
52816;SDS011;38687;43.330;21.924;2023-06-04T10:55:45;1.73;;;1.63;;
52816;SDS011;38687;43.330;21.924;2023-06-04T10:58:12;1.83;;;1.70;;
52816;SDS011;38687;43.330;21.924;2023-06-04T11:00:41;2.63;;;1.73;;
52816;SDS011;38687;43.330;21.924;2023-06-04T11:03:12;1.92;;;1.58;;
52816;SDS011;38687;43.330;21.924;2023-06-04T11:05:39;2.13;;;1.30;;
52816;SDS011;38687;43.330;21.924;2023-06-04T11:08:06;2.85;;;1.95;;
52816;SDS011;38687;43.330;21.924;2023-06-04T11:10:34;1.60;;;1.50;;
52816;SDS011;38687;43.330;21.924;2023-06-04T11:13:03;3.85;;;1.70;;
52816;SDS011;38687;43.330;21.924;2023-06-04T11:15:40;1.50;;;1.40;;
52816;SDS011;38687;43.330;21.924;2023-06-04T11:18:06;3.05;;;1.55;;
52816;SDS011;38687;43.330;21.924;2023-06-04T11:20:32;3.45;;;1.60;;
52816;SDS011;38687;43.330;21.924;2023-06-04T11:22:58;3.15;;;1.80;;
52816;SDS011;38687;43.330;21.924;2023-06-04T11:25:25;2.60;;;1.63;;
52816;SDS011;38687;43.330;21.924;2023-06-04T11:27:54;2.72;;;1.67;;
52816;SDS011;38687;43.330;21.924;2023-06-04T11:30:20;1.60;;;1.50;;
52816;SDS011;38687;43.330;21.924;2023-06-04T11:32:46;4.80;;;1.83;;
52816;SDS011;38687;43.330;21.924;2023-06-04T11:35:12;4.97;;;2.67;;
52816;SDS011;38687;43.330;21.924;2023-06-04T11:37:37;4.47;;;2.80;;
52816;SDS011;38687;43.330;21.924;2023-06-04T11:40:25;4.38;;;1.90;;
52816;SDS011;38687;43.330;21.924;2023-06-04T11:42:51;3.10;;;2.72;;
52816;SDS011;38687;43.330;21.924;2023-06-04T11:45:17;2.95;;;2.13;;
52816;SDS011;38687;43.330;21.924;2023-06-04T11:47:47;3.33;;;2.03;;
52816;SDS011;38687;43.330;21.924;2023-06-04T11:50:13;3.15;;;2.85;;
52816;SDS011;38687;43.330;21.924;2023-06-04T11:52:40;3.28;;;2.40;;
52816;SDS011;38687;43.330;21.924;2023-06-04T11:55:09;2.50;;;2.30;;
52816;SDS011;38687;43.330;21.924;2023-06-04T11:57:36;4.90;;;2.03;;
52816;SDS011;38687;43.330;21.924;2023-06-04T12:00:02;2.63;;;2.25;;
52816;SDS011;38687;43.330;21.924;2023-06-04T12:02:30;4.32;;;2.40;;
52816;SDS011;38687;43.330;21.924;2023-06-04T12:04:55;3.95;;;2.08;;
52816;SDS011;38687;43.330;21.924;2023-06-04T12:07:21;3.17;;;2.88;;
52816;SDS011;38687;43.330;21.924;2023-06-04T12:09:49;2.53;;;2.33;;
52816;SDS011;38687;43.330;21.924;2023-06-04T12:12:20;5.43;;;2.78;;
52816;SDS011;38687;43.330;21.924;2023-06-04T12:14:46;3.45;;;2.53;;
52816;SDS011;38687;43.330;21.924;2023-06-04T12:17:12;3.53;;;2.38;;
52816;SDS011;38687;43.330;21.924;2023-06-04T12:19:47;2.67;;;2.13;;
52816;SDS011;38687;43.330;21.924;2023-06-04T12:22:16;3.20;;;1.80;;
52816;SDS011;38687;43.330;21.924;2023-06-04T12:24:48;3.08;;;2.22;;
52816;SDS011;38687;43.330;21.924;2023-06-04T12:27:18;2.50;;;1.95;;
52816;SDS011;38687;43.330;21.924;2023-06-04T12:29:53;2.20;;;2.10;;
52816;SDS011;38687;43.330;21.924;2023-06-04T12:32:22;1.52;;;1.42;;
52816;SDS011;38687;43.330;21.924;2023-06-04T12:34:48;3.78;;;2.15;;
52816;SDS011;38687;43.330;21.924;2023-06-04T12:37:13;4.35;;;2.30;;
52816;SDS011;38687;43.330;21.924;2023-06-04T12:39:39;3.47;;;1.95;;
52816;SDS011;38687;43.330;21.924;2023-06-04T12:42:05;2.38;;;1.67;;
52816;SDS011;38687;43.330;21.924;2023-06-04T12:44:31;3.35;;;1.88;;
52816;SDS011;38687;43.330;21.924;2023-06-04T12:46:57;1.88;;;1.67;;
52816;SDS011;38687;43.330;21.924;2023-06-04T12:49:22;2.13;;;1.80;;
52816;SDS011;38687;43.330;21.924;2023-06-04T12:51:48;2.97;;;1.63;;
52816;SDS011;38687;43.330;21.924;2023-06-04T12:54:13;1.95;;;1.75;;
52816;SDS011;38687;43.330;21.924;2023-06-04T12:56:39;2.50;;;1.73;;
52816;SDS011;38687;43.330;21.924;2023-06-04T12:59:07;2.78;;;1.80;;
52816;SDS011;38687;43.330;21.924;2023-06-04T13:01:33;2.25;;;1.63;;
52816;SDS011;38687;43.330;21.924;2023-06-04T13:03:58;5.57;;;1.80;;
52816;SDS011;38687;43.330;21.924;2023-06-04T13:06:24;2.05;;;1.80;;
52816;SDS011;38687;43.330;21.924;2023-06-04T13:08:50;2.22;;;1.75;;
52816;SDS011;38687;43.330;21.924;2023-06-04T13:11:17;3.08;;;2.08;;
52816;SDS011;38687;43.330;21.924;2023-06-04T13:13:42;2.30;;;1.50;;
52816;SDS011;38687;43.330;21.924;2023-06-04T13:16:08;2.03;;;1.80;;
52816;SDS011;38687;43.330;21.924;2023-06-04T13:18:34;2.65;;;1.80;;
52816;SDS011;38687;43.330;21.924;2023-06-04T13:20:59;2.03;;;1.60;;
52816;SDS011;38687;43.330;21.924;2023-06-04T13:23:25;2.47;;;1.65;;
52816;SDS011;38687;43.330;21.924;2023-06-04T13:25:50;2.17;;;1.98;;
52816;SDS011;38687;43.330;21.924;2023-06-04T13:28:16;6.88;;;2.40;;
52816;SDS011;38687;43.330;21.924;2023-06-04T13:30:42;2.92;;;1.83;;
52816;SDS011;38687;43.330;21.924;2023-06-04T13:33:08;3.10;;;1.60;;
52816;SDS011;38687;43.330;21.924;2023-06-04T13:35:33;1.90;;;1.70;;
52816;SDS011;38687;43.330;21.924;2023-06-04T13:37:59;2.63;;;1.75;;
52816;SDS011;38687;43.330;21.924;2023-06-04T13:40:25;3.67;;;1.70;;
52816;SDS011;38687;43.330;21.924;2023-06-04T13:42:50;2.65;;;1.70;;
52816;SDS011;38687;43.330;21.924;2023-06-04T13:45:16;2.28;;;1.73;;
52816;SDS011;38687;43.330;21.924;2023-06-04T13:47:42;2.13;;;1.70;;
52816;SDS011;38687;43.330;21.924;2023-06-04T13:50:07;1.80;;;1.48;;
52816;SDS011;38687;43.330;21.924;2023-06-04T13:52:33;2.05;;;1.85;;
52816;SDS011;38687;43.330;21.924;2023-06-04T13:54:59;5.10;;;1.80;;
52816;SDS011;38687;43.330;21.924;2023-06-04T13:57:24;3.30;;;1.73;;
52816;SDS011;38687;43.330;21.924;2023-06-04T13:59:52;2.20;;;2.03;;
52816;SDS011;38687;43.330;21.924;2023-06-04T14:02:18;1.60;;;1.50;;
52816;SDS011;38687;43.330;21.924;2023-06-04T14:04:44;2.78;;;1.70;;
52816;SDS011;38687;43.330;21.924;2023-06-04T14:07:09;2.97;;;2.10;;
52816;SDS011;38687;43.330;21.924;2023-06-04T14:09:36;3.60;;;2.10;;
52816;SDS011;38687;43.330;21.924;2023-06-04T14:12:02;1.80;;;1.70;;
52816;SDS011;38687;43.330;21.924;2023-06-04T14:14:28;2.10;;;1.70;;
52816;SDS011;38687;43.330;21.924;2023-06-04T14:17:01;6.20;;;1.98;;
52816;SDS011;38687;43.330;21.924;2023-06-04T14:19:27;2.25;;;1.70;;
52816;SDS011;38687;43.330;21.924;2023-06-04T14:21:53;1.90;;;1.55;;
52816;SDS011;38687;43.330;21.924;2023-06-04T14:24:18;1.70;;;1.60;;
52816;SDS011;38687;43.330;21.924;2023-06-04T14:26:44;2.00;;;1.70;;
52816;SDS011;38687;43.330;21.924;2023-06-04T14:29:10;4.45;;;1.60;;
52816;SDS011;38687;43.330;21.924;2023-06-04T14:31:36;3.38;;;1.80;;
52816;SDS011;38687;43.330;21.924;2023-06-04T14:34:01;2.38;;;2.05;;
52816;SDS011;38687;43.330;21.924;2023-06-04T14:36:27;2.20;;;2.00;;